sensor_id;sensor_type;location;lat;lon;timestamp;pressure;altitude;pressure_sealevel;temperature;humidity
53506;BME280;39388;50.936;6.848;2022-11-28T20:56:03;100731.53;;;8.47;88.19
53506;BME280;39388;50.936;6.848;2022-11-28T20:58:34;100734.09;;;8.48;89.76
53506;BME280;39388;50.936;6.848;2022-11-28T21:01:05;100744.41;;;8.54;90.90
53506;BME280;39388;50.936;6.848;2022-11-28T21:03:36;100737.56;;;8.53;92.24
53506;BME280;39388;50.936;6.848;2022-11-28T21:06:06;100740.13;;;8.55;93.39
53506;BME280;39388;50.936;6.848;2022-11-28T21:08:37;100739.28;;;8.59;93.97
53506;BME280;39388;50.936;6.848;2022-11-28T21:11:10;100744.44;;;8.59;95.13
53506;BME280;39388;50.936;6.848;2022-11-28T21:13:41;100748.72;;;8.60;95.22
53506;BME280;39388;50.936;6.848;2022-11-28T21:16:14;100747.00;;;8.61;95.75
53506;BME280;39388;50.936;6.848;2022-11-28T21:18:45;100743.56;;;8.60;96.56
53506;BME280;39388;50.936;6.848;2022-11-28T21:21:18;100748.69;;;8.63;96.80
53506;BME280;39388;50.936;6.848;2022-11-28T21:23:49;100743.56;;;8.60;97.06
53506;BME280;39388;50.936;6.848;2022-11-28T21:26:21;100753.00;;;8.67;97.38
53506;BME280;39388;50.936;6.848;2022-11-28T21:28:54;100751.31;;;8.68;97.41
53506;BME280;39388;50.936;6.848;2022-11-28T21:31:28;100750.47;;;8.70;97.36
53506;BME280;39388;50.936;6.848;2022-11-28T21:34:00;100759.88;;;8.73;97.80
53506;BME280;39388;50.936;6.848;2022-11-28T21:36:30;100765.06;;;8.74;97.71
53506;BME280;39388;50.936;6.848;2022-11-28T21:39:01;100765.91;;;8.80;98.08
53506;BME280;39388;50.936;6.848;2022-11-28T21:41:31;100769.34;;;8.82;97.75
53506;BME280;39388;50.936;6.848;2022-11-28T21:44:02;100759.09;;;8.83;97.89
53506;BME280;39388;50.936;6.848;2022-11-28T21:46:32;100760.75;;;8.84;97.79
53506;BME280;39388;50.936;6.848;2022-11-28T21:49:03;100755.66;;;8.81;97.68
53506;BME280;39388;50.936;6.848;2022-11-28T21:51:33;100759.03;;;8.79;97.59
53506;BME280;39388;50.936;6.848;2022-11-28T21:54:04;100759.94;;;8.82;97.71
53506;BME280;39388;50.936;6.848;2022-11-28T21:56:34;100765.91;;;8.84;97.84
53506;BME280;39388;50.936;6.848;2022-11-28T21:59:04;100753.03;;;8.80;97.54
53506;BME280;39388;50.936;6.848;2022-11-28T22:01:35;100760.78;;;8.83;97.74
53506;BME280;39388;50.936;6.848;2022-11-28T22:04:05;100760.78;;;8.83;97.56
53506;BME280;39388;50.936;6.848;2022-11-28T22:06:36;100762.47;;;8.81;97.43
53506;BME280;39388;50.936;6.848;2022-11-28T22:09:06;100765.91;;;8.78;97.60
53506;BME280;39388;50.936;6.848;2022-11-28T22:11:38;100761.59;;;8.79;97.77
53506;BME280;39388;50.936;6.848;2022-11-28T22:14:09;100759.03;;;8.72;97.76
53506;BME280;39388;50.936;6.848;2022-11-28T22:16:40;100757.34;;;8.74;97.57
53506;BME280;39388;50.936;6.848;2022-11-28T22:19:10;100761.63;;;8.76;97.50
53506;BME280;39388;50.936;6.848;2022-11-28T22:21:41;100756.47;;;8.72;97.60
53506;BME280;39388;50.936;6.848;2022-11-28T22:24:11;100762.44;;;8.73;97.66
53506;BME280;39388;50.936;6.848;2022-11-28T22:26:41;100770.16;;;8.73;97.51
53506;BME280;39388;50.936;6.848;2022-11-28T22:29:12;100763.31;;;8.69;97.47
53506;BME280;39388;50.936;6.848;2022-11-28T22:31:43;100752.13;;;8.65;97.67
53506;BME280;39388;50.936;6.848;2022-11-28T22:34:13;100759.00;;;8.65;97.37
53506;BME280;39388;50.936;6.848;2022-11-28T22:36:44;100766.72;;;8.66;97.38
53506;BME280;39388;50.936;6.848;2022-11-28T22:39:14;100765.84;;;8.64;97.41
53506;BME280;39388;50.936;6.848;2022-11-28T22:41:44;100755.56;;;8.61;97.47
53506;BME280;39388;50.936;6.848;2022-11-28T22:44:15;100764.13;;;8.57;97.48
53506;BME280;39388;50.936;6.848;2022-11-28T22:46:45;100766.72;;;8.60;97.30
53506;BME280;39388;50.936;6.848;2022-11-28T22:49:16;100775.28;;;8.62;97.29
53506;BME280;39388;50.936;6.848;2022-11-28T22:51:46;100774.41;;;8.60;97.37
53506;BME280;39388;50.936;6.848;2022-11-28T22:54:16;100781.28;;;8.61;97.28
53506;BME280;39388;50.936;6.848;2022-11-28T22:56:47;100775.25;;;8.61;97.28
53506;BME280;39388;50.936;6.848;2022-11-28T22:59:17;100777.00;;;8.60;97.36
53506;BME280;39388;50.936;6.848;2022-11-28T23:01:47;100779.56;;;8.62;97.19
53506;BME280;39388;50.936;6.848;2022-11-28T23:04:20;100777.81;;;8.56;97.23
53506;BME280;39388;50.936;6.848;2022-11-28T23:06:50;100784.69;;;8.58;97.39
53506;BME280;39388;50.936;6.848;2022-11-28T23:09:20;100786.41;;;8.58;97.12
53506;BME280;39388;50.936;6.848;2022-11-28T23:11:51;100790.66;;;8.56;97.09
53506;BME280;39388;50.936;6.848;2022-11-28T23:14:21;100788.97;;;8.58;96.92
53506;BME280;39388;50.936;6.848;2022-11-28T23:16:52;100794.94;;;8.58;97.00
53506;BME280;39388;50.936;6.848;2022-11-28T23:19:23;100785.50;;;8.53;96.98
53506;BME280;39388;50.936;6.848;2022-11-28T23:21:53;100795.81;;;8.56;96.98
53506;BME280;39388;50.936;6.848;2022-11-28T23:24:23;100794.06;;;8.52;97.08
53506;BME280;39388;50.936;6.848;2022-11-28T23:26:54;100798.38;;;8.56;97.07
53506;BME280;39388;50.936;6.848;2022-11-28T23:29:24;100801.81;;;8.58;97.06
53506;BME280;39388;50.936;6.848;2022-11-28T23:31:55;100787.22;;;8.52;97.29
53506;BME280;39388;50.936;6.848;2022-11-28T23:34:25;100791.53;;;8.59;97.10
53506;BME280;39388;50.936;6.848;2022-11-28T23:36:55;100780.38;;;8.53;96.90
53506;BME280;39388;50.936;6.848;2022-11-28T23:39:26;100802.72;;;8.65;96.80
53506;BME280;39388;50.936;6.848;2022-11-28T23:41:56;100801.84;;;8.67;96.62
53506;BME280;39388;50.936;6.848;2022-11-28T23:44:28;100803.59;;;8.71;96.75
53506;BME280;39388;50.936;6.848;2022-11-28T23:46:58;100810.47;;;8.76;96.87
53506;BME280;39388;50.936;6.848;2022-11-28T23:49:29;100804.44;;;8.75;96.63
53506;BME280;39388;50.936;6.848;2022-11-28T23:51:59;100811.34;;;8.79;96.64
53506;BME280;39388;50.936;6.848;2022-11-28T23:54:29;100816.47;;;8.81;96.79
53506;BME280;39388;50.936;6.848;2022-11-28T23:57:00;100811.34;;;8.81;96.62
53506;BME280;39388;50.936;6.848;2022-11-28T23:59:30;100815.63;;;8.80;96.56
